Terminal Aerodrome Forecast
Issued by NWS

Home | Current Version | Previous Version | Text Only | Print | Product List | Glossary On
Versions: 1 2 3 4 5 6 7 8 9 10 11 12 13 14 15 16 17 18 19
000
FTAK31 PAFA 250532
TAFAOM
TAF
PAOM 250532Z 2506/2606 18008KT 5SM BR VCSH SCT006 BKN010 OVC014
     FM250800 16008KT 4SM -RA BR BKN007 OVC015
     FM251300 15008KT 2SM -RA BR OVC004
     FM260300 17008KT 6SM -SHRA BR OVC007=

USA.gov is the U.S. government's official web portal to all federal, state and local government web resources and services.